Terminal Aerodrome Forecast
Issued by NWS

Home | Current Version | Previous Version | Text Only | Print | Product List | Glossary On
Versions: 1 2 3 4 5 6 7 8 9 10 11 12 13 14 15 16 17 18 19 20 21 22 23 24 25
618
FTUS42 KFFC 280908 AAB
TAFFTY
TAF AMD
KFTY 280908Z 2809/2906 20004KT 3SM BR OVC003
      TEMPO 2809/2812 1SM BR
     FM281200 18004KT 5SM BR BKN005
     FM281500 18005KT 6SM BR BKN009
     FM281700 17008KT P6SM BKN015
     FM281900 18009KT P6SM BKN035
     FM282300 19009KT P6SM SCT035
     FM290100 18007KT P6SM SCT250=

USA.gov is the U.S. government's official web portal to all federal, state and local government web resources and services.